sensor_id;sensor_type;location;lat;lon;timestamp;P1;durP1;ratioP1;P2;durP2;ratioP2
12776;SDS011;6452;41.572;23.732;2022-11-15T00:00:59;12.88;;;11.25;;
12776;SDS011;6452;41.572;23.732;2022-11-15T00:03:26;12.63;;;10.65;;
12776;SDS011;6452;41.572;23.732;2022-11-15T00:05:54;15.88;;;11.23;;
12776;SDS011;6452;41.572;23.732;2022-11-15T00:08:20;12.35;;;10.45;;
12776;SDS011;6452;41.572;23.732;2022-11-15T00:10:53;13.82;;;10.52;;
12776;SDS011;6452;41.572;23.732;2022-11-15T00:13:23;13.68;;;10.43;;
12776;SDS011;6452;41.572;23.732;2022-11-15T00:15:49;13.68;;;11.25;;
12776;SDS011;6452;41.572;23.732;2022-11-15T00:18:16;14.40;;;11.68;;
12776;SDS011;6452;41.572;23.732;2022-11-15T00:20:44;16.05;;;11.23;;
12776;SDS011;6452;41.572;23.732;2022-11-15T00:23:10;15.75;;;11.57;;
12776;SDS011;6452;41.572;23.732;2022-11-15T00:25:36;15.98;;;10.68;;
12776;SDS011;6452;41.572;23.732;2022-11-15T00:28:03;17.75;;;11.38;;
12776;SDS011;6452;41.572;23.732;2022-11-15T00:30:30;12.93;;;10.65;;
12776;SDS011;6452;41.572;23.732;2022-11-15T00:32:56;17.65;;;11.30;;
12776;SDS011;6452;41.572;23.732;2022-11-15T00:35:22;17.60;;;12.80;;
12776;SDS011;6452;41.572;23.732;2022-11-15T00:37:52;15.27;;;11.98;;
12776;SDS011;6452;41.572;23.732;2022-11-15T00:40:18;15.10;;;12.02;;
12776;SDS011;6452;41.572;23.732;2022-11-15T00:42:45;16.02;;;12.25;;
12776;SDS011;6452;41.572;23.732;2022-11-15T00:45:12;16.88;;;13.00;;
12776;SDS011;6452;41.572;23.732;2022-11-15T00:47:39;16.67;;;12.40;;
12776;SDS011;6452;41.572;23.732;2022-11-15T00:50:06;15.50;;;12.88;;
12776;SDS011;6452;41.572;23.732;2022-11-15T00:52:33;18.17;;;12.55;;
12776;SDS011;6452;41.572;23.732;2022-11-15T00:55:04;16.83;;;12.23;;
12776;SDS011;6452;41.572;23.732;2022-11-15T00:57:31;18.70;;;12.98;;
12776;SDS011;6452;41.572;23.732;2022-11-15T00:59:57;16.63;;;12.68;;
12776;SDS011;6452;41.572;23.732;2022-11-15T01:02:24;20.15;;;14.45;;
12776;SDS011;6452;41.572;23.732;2022-11-15T01:04:51;17.48;;;13.57;;
12776;SDS011;6452;41.572;23.732;2022-11-15T01:07:18;21.83;;;13.50;;
12776;SDS011;6452;41.572;23.732;2022-11-15T01:09:45;16.42;;;13.35;;
12776;SDS011;6452;41.572;23.732;2022-11-15T01:12:11;16.98;;;12.85;;
12776;SDS011;6452;41.572;23.732;2022-11-15T01:14:42;16.65;;;13.60;;
12776;SDS011;6452;41.572;23.732;2022-11-15T01:17:08;19.17;;;14.23;;
12776;SDS011;6452;41.572;23.732;2022-11-15T01:19:34;18.63;;;14.27;;
12776;SDS011;6452;41.572;23.732;2022-11-15T01:22:05;21.00;;;15.45;;
12776;SDS011;6452;41.572;23.732;2022-11-15T01:24:32;17.67;;;13.52;;
12776;SDS011;6452;41.572;23.732;2022-11-15T01:26:58;21.67;;;15.15;;
12776;SDS011;6452;41.572;23.732;2022-11-15T01:29:25;19.48;;;14.55;;
12776;SDS011;6452;41.572;23.732;2022-11-15T01:31:52;19.15;;;14.60;;
12776;SDS011;6452;41.572;23.732;2022-11-15T01:34:19;19.95;;;14.27;;
12776;SDS011;6452;41.572;23.732;2022-11-15T01:36:50;17.13;;;13.10;;
12776;SDS011;6452;41.572;23.732;2022-11-15T01:39:16;12.57;;;10.70;;
12776;SDS011;6452;41.572;23.732;2022-11-15T01:41:43;12.27;;;10.40;;
12776;SDS011;6452;41.572;23.732;2022-11-15T01:47:24;13.35;;;9.32;;
12776;SDS011;6452;41.572;23.732;2022-11-15T01:50:06;14.43;;;8.68;;
12776;SDS011;6452;41.572;23.732;2022-11-15T01:52:36;14.13;;;9.65;;
12776;SDS011;6452;41.572;23.732;2022-11-15T01:57:39;12.80;;;8.13;;
12776;SDS011;6452;41.572;23.732;2022-11-15T02:00:08;11.05;;;8.48;;
12776;SDS011;6452;41.572;23.732;2022-11-15T02:02:35;11.55;;;8.75;;
12776;SDS011;6452;41.572;23.732;2022-11-15T02:05:02;11.35;;;8.73;;
12776;SDS011;6452;41.572;23.732;2022-11-15T02:07:29;13.82;;;10.90;;
12776;SDS011;6452;41.572;23.732;2022-11-15T02:09:58;19.67;;;12.48;;
12776;SDS011;6452;41.572;23.732;2022-11-15T02:12:32;18.48;;;13.20;;
12776;SDS011;6452;41.572;23.732;2022-11-15T02:14:58;20.70;;;13.85;;
12776;SDS011;6452;41.572;23.732;2022-11-15T02:17:36;21.77;;;14.02;;
12776;SDS011;6452;41.572;23.732;2022-11-15T02:29:10;258.60;;;18.20;;
12776;SDS011;6452;41.572;23.732;2022-11-15T02:35:11;151.50;;;14.95;;
12776;SDS011;6452;41.572;23.732;2022-11-15T02:43:11;57.17;;;11.88;;
12776;SDS011;6452;41.572;23.732;2022-11-15T02:46:06;13.13;;;9.93;;
12776;SDS011;6452;41.572;23.732;2022-11-15T02:49:10;13.32;;;10.55;;
12776;SDS011;6452;41.572;23.732;2022-11-15T02:51:38;12.90;;;10.50;;
12776;SDS011;6452;41.572;23.732;2022-11-15T02:54:07;12.10;;;10.15;;
12776;SDS011;6452;41.572;23.732;2022-11-15T02:56:41;12.77;;;10.40;;
12776;SDS011;6452;41.572;23.732;2022-11-15T02:59:12;14.63;;;12.32;;
12776;SDS011;6452;41.572;23.732;2022-11-15T03:02:07;14.98;;;11.30;;
12776;SDS011;6452;41.572;23.732;2022-11-15T03:05:03;14.75;;;12.23;;
12776;SDS011;6452;41.572;23.732;2022-11-15T03:11:07;16.70;;;12.73;;
12776;SDS011;6452;41.572;23.732;2022-11-15T03:14:14;14.77;;;11.77;;
12776;SDS011;6452;41.572;23.732;2022-11-15T03:16:34;11.85;;;10.10;;
12776;SDS011;6452;41.572;23.732;2022-11-15T03:21:39;40.05;;;10.40;;
12776;SDS011;6452;41.572;23.732;2022-11-15T03:24:07;164.27;;;14.25;;
12776;SDS011;6452;41.572;23.732;2022-11-15T03:26:34;56.08;;;13.98;;
12776;SDS011;6452;41.572;23.732;2022-11-15T03:29:04;96.30;;;13.90;;
12776;SDS011;6452;41.572;23.732;2022-11-15T03:31:39;52.42;;;12.25;;
12776;SDS011;6452;41.572;23.732;2022-11-15T03:34:15;20.42;;;11.57;;
12776;SDS011;6452;41.572;23.732;2022-11-15T03:36:50;15.55;;;11.20;;
12776;SDS011;6452;41.572;23.732;2022-11-15T03:39:17;16.02;;;12.15;;
12776;SDS011;6452;41.572;23.732;2022-11-15T03:42:09;15.13;;;12.32;;
12776;SDS011;6452;41.572;23.732;2022-11-15T03:44:42;15.02;;;11.95;;
12776;SDS011;6452;41.572;23.732;2022-11-15T03:47:36;15.63;;;12.52;;
12776;SDS011;6452;41.572;23.732;2022-11-15T03:50:08;15.68;;;11.65;;
12776;SDS011;6452;41.572;23.732;2022-11-15T03:52:40;13.90;;;11.00;;
12776;SDS011;6452;41.572;23.732;2022-11-15T03:55:09;14.18;;;10.57;;
12776;SDS011;6452;41.572;23.732;2022-11-15T03:57:38;13.80;;;11.27;;
12776;SDS011;6452;41.572;23.732;2022-11-15T04:00:09;12.38;;;10.20;;
12776;SDS011;6452;41.572;23.732;2022-11-15T04:02:37;12.90;;;10.88;;
12776;SDS011;6452;41.572;23.732;2022-11-15T04:05:04;11.57;;;10.35;;
12776;SDS011;6452;41.572;23.732;2022-11-15T04:07:30;17.65;;;10.52;;
12776;SDS011;6452;41.572;23.732;2022-11-15T04:09:56;12.52;;;10.63;;
12776;SDS011;6452;41.572;23.732;2022-11-15T04:12:32;14.13;;;11.10;;
12776;SDS011;6452;41.572;23.732;2022-11-15T04:17:37;12.75;;;10.27;;
12776;SDS011;6452;41.572;23.732;2022-11-15T04:20:27;14.75;;;11.40;;
12776;SDS011;6452;41.572;23.732;2022-11-15T04:23:14;13.50;;;11.45;;
12776;SDS011;6452;41.572;23.732;2022-11-15T04:26:04;13.80;;;12.25;;
12776;SDS011;6452;41.572;23.732;2022-11-15T04:28:33;17.60;;;13.48;;
12776;SDS011;6452;41.572;23.732;2022-11-15T04:30:59;15.95;;;13.07;;
12776;SDS011;6452;41.572;23.732;2022-11-15T04:33:26;15.82;;;13.10;;
12776;SDS011;6452;41.572;23.732;2022-11-15T04:35:53;18.27;;;15.52;;
12776;SDS011;6452;41.572;23.732;2022-11-15T04:38:38;19.17;;;15.52;;
12776;SDS011;6452;41.572;23.732;2022-11-15T04:41:04;20.33;;;15.30;;
12776;SDS011;6452;41.572;23.732;2022-11-15T04:43:30;18.65;;;14.68;;
12776;SDS011;6452;41.572;23.732;2022-11-15T04:45:57;21.67;;;14.43;;
12776;SDS011;6452;41.572;23.732;2022-11-15T04:48:28;25.83;;;16.42;;
12776;SDS011;6452;41.572;23.732;2022-11-15T04:50:55;37.00;;;21.65;;
12776;SDS011;6452;41.572;23.732;2022-11-15T04:53:25;32.40;;;20.33;;
12776;SDS011;6452;41.572;23.732;2022-11-15T04:55:52;41.55;;;24.30;;
12776;SDS011;6452;41.572;23.732;2022-11-15T04:58:19;50.28;;;30.58;;
12776;SDS011;6452;41.572;23.732;2022-11-15T05:00:45;68.75;;;44.50;;
12776;SDS011;6452;41.572;23.732;2022-11-15T05:03:12;61.00;;;37.38;;
12776;SDS011;6452;41.572;23.732;2022-11-15T05:06:13;36.00;;;25.08;;
12776;SDS011;6452;41.572;23.732;2022-11-15T05:08:40;28.77;;;19.48;;
12776;SDS011;6452;41.572;23.732;2022-11-15T05:11:07;24.85;;;18.25;;
12776;SDS011;6452;41.572;23.732;2022-11-15T05:13:33;23.73;;;16.67;;
12776;SDS011;6452;41.572;23.732;2022-11-15T05:15:59;25.13;;;16.25;;
12776;SDS011;6452;41.572;23.732;2022-11-15T05:18:26;22.88;;;16.38;;
12776;SDS011;6452;41.572;23.732;2022-11-15T05:20:54;23.00;;;15.48;;
12776;SDS011;6452;41.572;23.732;2022-11-15T05:23:21;20.05;;;15.40;;
12776;SDS011;6452;41.572;23.732;2022-11-15T05:25:47;19.10;;;14.95;;
12776;SDS011;6452;41.572;23.732;2022-11-15T05:28:14;18.45;;;13.90;;
12776;SDS011;6452;41.572;23.732;2022-11-15T05:30:41;16.35;;;12.88;;
12776;SDS011;6452;41.572;23.732;2022-11-15T05:33:07;20.48;;;15.77;;
12776;SDS011;6452;41.572;23.732;2022-11-15T05:35:36;26.02;;;21.00;;
12776;SDS011;6452;41.572;23.732;2022-11-15T05:38:07;27.70;;;22.60;;
12776;SDS011;6452;41.572;23.732;2022-11-15T05:40:34;29.95;;;26.33;;
12776;SDS011;6452;41.572;23.732;2022-11-15T05:43:01;33.90;;;24.00;;
12776;SDS011;6452;41.572;23.732;2022-11-15T05:45:29;31.15;;;24.17;;
12776;SDS011;6452;41.572;23.732;2022-11-15T05:47:55;43.80;;;19.30;;
12776;SDS011;6452;41.572;23.732;2022-11-15T05:50:24;33.92;;;17.60;;
12776;SDS011;6452;41.572;23.732;2022-11-15T05:52:51;36.88;;;22.83;;
12776;SDS011;6452;41.572;23.732;2022-11-15T05:55:23;43.53;;;25.90;;
12776;SDS011;6452;41.572;23.732;2022-11-15T05:57:49;56.33;;;31.65;;
12776;SDS011;6452;41.572;23.732;2022-11-15T06:00:16;41.78;;;28.23;;
12776;SDS011;6452;41.572;23.732;2022-11-15T06:02:45;65.53;;;35.22;;
12776;SDS011;6452;41.572;23.732;2022-11-15T06:05:12;59.97;;;34.75;;
12776;SDS011;6452;41.572;23.732;2022-11-15T06:07:43;49.05;;;31.58;;
12776;SDS011;6452;41.572;23.732;2022-11-15T06:10:10;43.55;;;26.73;;
12776;SDS011;6452;41.572;23.732;2022-11-15T06:12:37;33.35;;;23.02;;
12776;SDS011;6452;41.572;23.732;2022-11-15T06:15:04;26.20;;;19.02;;
12776;SDS011;6452;41.572;23.732;2022-11-15T06:17:35;23.48;;;18.00;;
12776;SDS011;6452;41.572;23.732;2022-11-15T06:20:06;30.63;;;21.27;;
12776;SDS011;6452;41.572;23.732;2022-11-15T06:22:32;32.38;;;23.05;;
12776;SDS011;6452;41.572;23.732;2022-11-15T06:24:59;27.30;;;21.05;;
12776;SDS011;6452;41.572;23.732;2022-11-15T06:27:26;30.63;;;21.48;;
12776;SDS011;6452;41.572;23.732;2022-11-15T06:29:56;29.00;;;20.60;;
12776;SDS011;6452;41.572;23.732;2022-11-15T06:32:23;36.97;;;23.45;;
12776;SDS011;6452;41.572;23.732;2022-11-15T06:34:49;39.22;;;27.35;;
12776;SDS011;6452;41.572;23.732;2022-11-15T06:37:16;71.95;;;38.42;;
12776;SDS011;6452;41.572;23.732;2022-11-15T06:39:43;54.67;;;34.17;;
12776;SDS011;6452;41.572;23.732;2022-11-15T06:42:10;33.15;;;22.35;;
12776;SDS011;6452;41.572;23.732;2022-11-15T06:44:36;36.63;;;17.90;;
12776;SDS011;6452;41.572;23.732;2022-11-15T06:47:03;31.77;;;17.40;;
12776;SDS011;6452;41.572;23.732;2022-11-15T06:49:30;21.42;;;15.90;;
12776;SDS011;6452;41.572;23.732;2022-11-15T06:51:56;39.50;;;20.92;;
12776;SDS011;6452;41.572;23.732;2022-11-15T06:54:27;40.72;;;22.50;;
12776;SDS011;6452;41.572;23.732;2022-11-15T06:56:53;50.42;;;25.15;;
12776;SDS011;6452;41.572;23.732;2022-11-15T06:59:20;37.22;;;22.33;;
12776;SDS011;6452;41.572;23.732;2022-11-15T07:01:47;38.92;;;22.13;;
12776;SDS011;6452;41.572;23.732;2022-11-15T07:04:14;20.95;;;15.63;;
12776;SDS011;6452;41.572;23.732;2022-11-15T07:06:41;23.60;;;15.63;;
12776;SDS011;6452;41.572;23.732;2022-11-15T07:09:11;34.65;;;15.30;;
12776;SDS011;6452;41.572;23.732;2022-11-15T07:11:39;34.65;;;13.93;;
12776;SDS011;6452;41.572;23.732;2022-11-15T07:14:05;19.63;;;13.20;;
12776;SDS011;6452;41.572;23.732;2022-11-15T07:16:32;18.20;;;12.55;;
12776;SDS011;6452;41.572;23.732;2022-11-15T07:18:59;11.20;;;10.10;;
12776;SDS011;6452;41.572;23.732;2022-11-15T07:21:26;25.30;;;10.40;;
12776;SDS011;6452;41.572;23.732;2022-11-15T07:23:52;38.15;;;11.65;;
12776;SDS011;6452;41.572;23.732;2022-11-15T07:26:20;29.50;;;13.20;;
12776;SDS011;6452;41.572;23.732;2022-11-15T07:28:46;22.77;;;13.93;;
12776;SDS011;6452;41.572;23.732;2022-11-15T07:31:13;39.10;;;14.88;;
12776;SDS011;6452;41.572;23.732;2022-11-15T07:33:40;40.53;;;14.40;;
12776;SDS011;6452;41.572;23.732;2022-11-15T07:36:07;32.35;;;15.73;;
12776;SDS011;6452;41.572;23.732;2022-11-15T07:38:36;35.97;;;18.05;;
12776;SDS011;6452;41.572;23.732;2022-11-15T07:41:02;41.78;;;22.38;;
12776;SDS011;6452;41.572;23.732;2022-11-15T07:43:30;22.35;;;13.43;;
12776;SDS011;6452;41.572;23.732;2022-11-15T07:45:59;20.00;;;13.73;;
12776;SDS011;6452;41.572;23.732;2022-11-15T07:48:31;24.27;;;14.82;;
12776;SDS011;6452;41.572;23.732;2022-11-15T07:50:57;17.48;;;14.23;;
12776;SDS011;6452;41.572;23.732;2022-11-15T07:53:24;13.65;;;12.27;;
12776;SDS011;6452;41.572;23.732;2022-11-15T07:55:50;17.25;;;13.20;;
12776;SDS011;6452;41.572;23.732;2022-11-15T07:58:19;14.95;;;13.27;;
12776;SDS011;6452;41.572;23.732;2022-11-15T08:00:45;13.38;;;11.98;;
12776;SDS011;6452;41.572;23.732;2022-11-15T08:03:13;15.05;;;12.30;;
12776;SDS011;6452;41.572;23.732;2022-11-15T08:05:40;19.65;;;13.70;;
12776;SDS011;6452;41.572;23.732;2022-11-15T08:08:11;24.33;;;17.73;;
12776;SDS011;6452;41.572;23.732;2022-11-15T08:10:41;19.80;;;16.30;;
12776;SDS011;6452;41.572;23.732;2022-11-15T08:13:08;18.00;;;14.10;;
12776;SDS011;6452;41.572;23.732;2022-11-15T08:15:37;17.50;;;14.10;;
12776;SDS011;6452;41.572;23.732;2022-11-15T08:18:05;13.90;;;12.43;;
12776;SDS011;6452;41.572;23.732;2022-11-15T08:20:32;12.15;;;10.90;;
12776;SDS011;6452;41.572;23.732;2022-11-15T08:23:00;12.65;;;11.35;;
12776;SDS011;6452;41.572;23.732;2022-11-15T08:25:28;24.83;;;16.40;;
12776;SDS011;6452;41.572;23.732;2022-11-15T08:27:56;27.95;;;17.75;;
12776;SDS011;6452;41.572;23.732;2022-11-15T08:30:25;27.77;;;19.25;;
12776;SDS011;6452;41.572;23.732;2022-11-15T08:32:52;35.28;;;25.33;;
12776;SDS011;6452;41.572;23.732;2022-11-15T08:35:20;27.83;;;20.83;;
12776;SDS011;6452;41.572;23.732;2022-11-15T08:37:46;28.50;;;22.13;;
12776;SDS011;6452;41.572;23.732;2022-11-15T08:40:13;21.08;;;16.90;;
12776;SDS011;6452;41.572;23.732;2022-11-15T08:42:40;15.05;;;13.48;;
12776;SDS011;6452;41.572;23.732;2022-11-15T08:45:06;19.27;;;15.88;;
12776;SDS011;6452;41.572;23.732;2022-11-15T08:47:33;21.13;;;16.23;;
12776;SDS011;6452;41.572;23.732;2022-11-15T08:50:00;16.20;;;13.38;;
12776;SDS011;6452;41.572;23.732;2022-11-15T08:52:27;15.68;;;12.30;;
12776;SDS011;6452;41.572;23.732;2022-11-15T08:54:53;19.45;;;16.20;;
12776;SDS011;6452;41.572;23.732;2022-11-15T08:57:23;22.70;;;15.25;;
12776;SDS011;6452;41.572;23.732;2022-11-15T08:59:49;20.60;;;14.98;;
12776;SDS011;6452;41.572;23.732;2022-11-15T09:02:16;21.90;;;16.38;;
12776;SDS011;6452;41.572;23.732;2022-11-15T09:04:42;14.90;;;13.30;;
12776;SDS011;6452;41.572;23.732;2022-11-15T09:07:09;14.55;;;13.05;;
12776;SDS011;6452;41.572;23.732;2022-11-15T09:09:37;14.90;;;13.30;;
12776;SDS011;6452;41.572;23.732;2022-11-15T09:12:04;19.13;;;15.50;;
12776;SDS011;6452;41.572;23.732;2022-11-15T09:14:35;19.10;;;15.30;;
12776;SDS011;6452;41.572;23.732;2022-11-15T09:17:01;23.00;;;14.00;;
12776;SDS011;6452;41.572;23.732;2022-11-15T09:19:28;16.80;;;13.00;;
12776;SDS011;6452;41.572;23.732;2022-11-15T09:21:54;14.00;;;12.30;;
12776;SDS011;6452;41.572;23.732;2022-11-15T09:24:21;13.32;;;11.93;;
12776;SDS011;6452;41.572;23.732;2022-11-15T09:26:49;15.65;;;13.27;;
12776;SDS011;6452;41.572;23.732;2022-11-15T09:29:16;18.15;;;14.60;;
12776;SDS011;6452;41.572;23.732;2022-11-15T09:31:43;19.92;;;17.88;;
12776;SDS011;6452;41.572;23.732;2022-11-15T09:34:11;15.93;;;14.05;;
12776;SDS011;6452;41.572;23.732;2022-11-15T09:36:37;19.42;;;14.52;;
12776;SDS011;6452;41.572;23.732;2022-11-15T09:39:03;15.48;;;13.50;;
12776;SDS011;6452;41.572;23.732;2022-11-15T09:44:25;14.23;;;12.15;;
12776;SDS011;6452;41.572;23.732;2022-11-15T09:49:53;11.82;;;10.63;;
12776;SDS011;6452;41.572;23.732;2022-11-15T09:52:23;12.02;;;9.93;;
12776;SDS011;6452;41.572;23.732;2022-11-15T09:54:51;13.23;;;10.85;;
12776;SDS011;6452;41.572;23.732;2022-11-15T09:57:20;12.60;;;11.07;;
12776;SDS011;6452;41.572;23.732;2022-11-15T10:00:35;11.38;;;10.10;;
12776;SDS011;6452;41.572;23.732;2022-11-15T10:03:13;12.82;;;10.15;;
12776;SDS011;6452;41.572;23.732;2022-11-15T10:05:51;11.45;;;10.15;;
12776;SDS011;6452;41.572;23.732;2022-11-15T10:11:36;8.52;;;7.75;;
12776;SDS011;6452;41.572;23.732;2022-11-15T10:14:10;9.32;;;8.43;;
12776;SDS011;6452;41.572;23.732;2022-11-15T10:19:30;9.85;;;8.90;;
12776;SDS011;6452;41.572;23.732;2022-11-15T10:22:12;12.00;;;8.20;;
12776;SDS011;6452;41.572;23.732;2022-11-15T10:24:42;9.15;;;8.35;;
12776;SDS011;6452;41.572;23.732;2022-11-15T10:27:12;9.18;;;8.27;;
12776;SDS011;6452;41.572;23.732;2022-11-15T10:29:44;8.88;;;7.95;;
12776;SDS011;6452;41.572;23.732;2022-11-15T10:32:12;9.15;;;7.65;;
12776;SDS011;6452;41.572;23.732;2022-11-15T10:34:40;7.68;;;7.00;;
12776;SDS011;6452;41.572;23.732;2022-11-15T10:37:07;8.32;;;7.53;;
12776;SDS011;6452;41.572;23.732;2022-11-15T10:39:33;8.48;;;7.75;;
12776;SDS011;6452;41.572;23.732;2022-11-15T10:42:25;10.52;;;9.48;;
12776;SDS011;6452;41.572;23.732;2022-11-15T10:44:54;8.38;;;7.68;;
12776;SDS011;6452;41.572;23.732;2022-11-15T10:47:21;8.70;;;7.90;;
12776;SDS011;6452;41.572;23.732;2022-11-15T10:49:54;9.40;;;8.50;;
12776;SDS011;6452;41.572;23.732;2022-11-15T10:52:28;14.30;;;8.88;;
12776;SDS011;6452;41.572;23.732;2022-11-15T10:55:00;9.63;;;8.63;;
12776;SDS011;6452;41.572;23.732;2022-11-15T10:57:47;9.00;;;8.20;;
12776;SDS011;6452;41.572;23.732;2022-11-15T11:03:06;8.27;;;7.47;;
12776;SDS011;6452;41.572;23.732;2022-11-15T11:06:03;8.10;;;7.38;;
12776;SDS011;6452;41.572;23.732;2022-11-15T11:08:32;8.68;;;7.57;;
12776;SDS011;6452;41.572;23.732;2022-11-15T11:11:00;7.18;;;6.50;;
12776;SDS011;6452;41.572;23.732;2022-11-15T11:13:34;9.23;;;6.72;;
12776;SDS011;6452;41.572;23.732;2022-11-15T11:24:36;7.45;;;6.55;;
12776;SDS011;6452;41.572;23.732;2022-11-15T11:27:59;6.38;;;5.88;;
12776;SDS011;6452;41.572;23.732;2022-11-15T11:30:17;6.95;;;6.35;;
12776;SDS011;6452;41.572;23.732;2022-11-15T11:32:55;8.00;;;7.30;;
12776;SDS011;6452;41.572;23.732;2022-11-15T11:36:09;7.93;;;7.15;;
12776;SDS011;6452;41.572;23.732;2022-11-15T11:38:24;8.07;;;7.22;;
12776;SDS011;6452;41.572;23.732;2022-11-15T11:41:10;8.48;;;7.68;;
12776;SDS011;6452;41.572;23.732;2022-11-15T11:46:48;8.40;;;7.68;;
12776;SDS011;6452;41.572;23.732;2022-11-15T11:54:47;8.20;;;7.40;;
12776;SDS011;6452;41.572;23.732;2022-11-15T11:58:03;8.38;;;7.57;;
12776;SDS011;6452;41.572;23.732;2022-11-15T12:00:30;7.70;;;7.13;;
12776;SDS011;6452;41.572;23.732;2022-11-15T12:08:31;8.25;;;7.20;;
12776;SDS011;6452;41.572;23.732;2022-11-15T12:11:23;7.72;;;7.00;;
12776;SDS011;6452;41.572;23.732;2022-11-15T12:13:53;8.60;;;7.75;;
12776;SDS011;6452;41.572;23.732;2022-11-15T12:16:31;8.00;;;7.30;;
12776;SDS011;6452;41.572;23.732;2022-11-15T12:18:59;8.18;;;7.40;;
12776;SDS011;6452;41.572;23.732;2022-11-15T12:29:47;10.23;;;9.23;;
12776;SDS011;6452;41.572;23.732;2022-11-15T12:32:24;8.45;;;7.65;;
12776;SDS011;6452;41.572;23.732;2022-11-15T12:34:59;7.40;;;6.80;;
12776;SDS011;6452;41.572;23.732;2022-11-15T12:37:34;8.80;;;7.97;;
12776;SDS011;6452;41.572;23.732;2022-11-15T12:43:01;7.68;;;7.07;;
12776;SDS011;6452;41.572;23.732;2022-11-15T12:45:40;8.23;;;7.53;;
12776;SDS011;6452;41.572;23.732;2022-11-15T12:53:25;8.57;;;7.55;;
12776;SDS011;6452;41.572;23.732;2022-11-15T13:04:21;7.63;;;7.03;;
12776;SDS011;6452;41.572;23.732;2022-11-15T13:06:52;7.45;;;6.95;;
12776;SDS011;6452;41.572;23.732;2022-11-15T13:12:00;8.13;;;6.93;;
12776;SDS011;6452;41.572;23.732;2022-11-15T13:19:58;9.77;;;8.88;;
12776;SDS011;6452;41.572;23.732;2022-11-15T13:22:52;9.77;;;8.77;;
12776;SDS011;6452;41.572;23.732;2022-11-15T13:28:44;10.32;;;8.77;;
12776;SDS011;6452;41.572;23.732;2022-11-15T13:33:53;10.93;;;9.90;;
12776;SDS011;6452;41.572;23.732;2022-11-15T13:36:28;9.75;;;8.93;;
12776;SDS011;6452;41.572;23.732;2022-11-15T13:39:00;10.25;;;9.25;;
12776;SDS011;6452;41.572;23.732;2022-11-15T13:41:50;10.15;;;9.30;;
12776;SDS011;6452;41.572;23.732;2022-11-15T13:44:21;10.15;;;9.18;;
12776;SDS011;6452;41.572;23.732;2022-11-15T13:46:47;10.30;;;9.50;;
12776;SDS011;6452;41.572;23.732;2022-11-15T13:49:14;11.85;;;10.68;;
12776;SDS011;6452;41.572;23.732;2022-11-15T13:51:49;15.88;;;14.20;;
12776;SDS011;6452;41.572;23.732;2022-11-15T13:54:24;21.38;;;17.25;;
12776;SDS011;6452;41.572;23.732;2022-11-15T13:57:03;20.85;;;18.65;;
12776;SDS011;6452;41.572;23.732;2022-11-15T13:59:47;17.70;;;15.93;;
12776;SDS011;6452;41.572;23.732;2022-11-15T14:02:16;19.70;;;17.60;;
12776;SDS011;6452;41.572;23.732;2022-11-15T14:04:46;18.20;;;16.30;;
12776;SDS011;6452;41.572;23.732;2022-11-15T14:07:17;22.27;;;20.17;;
12776;SDS011;6452;41.572;23.732;2022-11-15T14:09:45;21.38;;;17.15;;
12776;SDS011;6452;41.572;23.732;2022-11-15T14:12:28;21.48;;;17.17;;
12776;SDS011;6452;41.572;23.732;2022-11-15T14:14:59;24.40;;;21.42;;
12776;SDS011;6452;41.572;23.732;2022-11-15T14:17:43;31.20;;;27.35;;
12776;SDS011;6452;41.572;23.732;2022-11-15T14:22:56;35.63;;;29.27;;
12776;SDS011;6452;41.572;23.732;2022-11-15T14:25:25;31.52;;;25.35;;
12776;SDS011;6452;41.572;23.732;2022-11-15T14:28:13;33.17;;;26.25;;
12776;SDS011;6452;41.572;23.732;2022-11-15T14:30:40;40.25;;;27.17;;
12776;SDS011;6452;41.572;23.732;2022-11-15T14:33:42;34.55;;;28.15;;
12776;SDS011;6452;41.572;23.732;2022-11-15T14:38:41;70.00;;;45.63;;
12776;SDS011;6452;41.572;23.732;2022-11-15T14:41:21;58.10;;;38.40;;
12776;SDS011;6452;41.572;23.732;2022-11-15T14:43:53;62.05;;;40.17;;
12776;SDS011;6452;41.572;23.732;2022-11-15T14:46:19;59.65;;;39.30;;
12776;SDS011;6452;41.572;23.732;2022-11-15T14:48:46;54.72;;;38.65;;
12776;SDS011;6452;41.572;23.732;2022-11-15T14:51:13;54.17;;;36.55;;
12776;SDS011;6452;41.572;23.732;2022-11-15T14:53:41;46.58;;;33.92;;
12776;SDS011;6452;41.572;23.732;2022-11-15T14:56:09;36.97;;;28.38;;
12776;SDS011;6452;41.572;23.732;2022-11-15T14:58:36;38.40;;;28.60;;
12776;SDS011;6452;41.572;23.732;2022-11-15T15:01:05;31.02;;;24.48;;
12776;SDS011;6452;41.572;23.732;2022-11-15T15:03:37;29.52;;;23.23;;
12776;SDS011;6452;41.572;23.732;2022-11-15T15:06:03;29.20;;;22.45;;
12776;SDS011;6452;41.572;23.732;2022-11-15T15:08:30;21.42;;;17.38;;
12776;SDS011;6452;41.572;23.732;2022-11-15T15:10:57;23.00;;;17.77;;
12776;SDS011;6452;41.572;23.732;2022-11-15T15:13:27;20.70;;;16.23;;
12776;SDS011;6452;41.572;23.732;2022-11-15T15:15:55;23.13;;;17.60;;
12776;SDS011;6452;41.572;23.732;2022-11-15T15:18:22;62.17;;;40.40;;
12776;SDS011;6452;41.572;23.732;2022-11-15T15:20:53;26.48;;;20.40;;
12776;SDS011;6452;41.572;23.732;2022-11-15T15:23:22;43.97;;;27.10;;
12776;SDS011;6452;41.572;23.732;2022-11-15T15:25:51;53.78;;;32.38;;
12776;SDS011;6452;41.572;23.732;2022-11-15T15:28:18;62.95;;;33.60;;
12776;SDS011;6452;41.572;23.732;2022-11-15T15:30:49;43.25;;;26.92;;
12776;SDS011;6452;41.572;23.732;2022-11-15T15:33:16;36.05;;;25.23;;
12776;SDS011;6452;41.572;23.732;2022-11-15T15:35:46;26.33;;;20.75;;
12776;SDS011;6452;41.572;23.732;2022-11-15T15:38:13;27.90;;;21.15;;
12776;SDS011;6452;41.572;23.732;2022-11-15T15:40:40;26.48;;;21.10;;
12776;SDS011;6452;41.572;23.732;2022-11-15T15:43:07;25.73;;;21.23;;
12776;SDS011;6452;41.572;23.732;2022-11-15T15:45:35;27.45;;;23.38;;
12776;SDS011;6452;41.572;23.732;2022-11-15T15:48:03;31.70;;;24.38;;
12776;SDS011;6452;41.572;23.732;2022-11-15T15:50:33;36.97;;;25.10;;
12776;SDS011;6452;41.572;23.732;2022-11-15T15:53:01;38.45;;;28.73;;
12776;SDS011;6452;41.572;23.732;2022-11-15T15:55:28;37.50;;;28.95;;
12776;SDS011;6452;41.572;23.732;2022-11-15T15:57:55;43.38;;;34.25;;
12776;SDS011;6452;41.572;23.732;2022-11-15T16:00:25;43.13;;;33.42;;
12776;SDS011;6452;41.572;23.732;2022-11-15T16:02:52;55.53;;;38.63;;
12776;SDS011;6452;41.572;23.732;2022-11-15T16:05:22;57.40;;;42.92;;
12776;SDS011;6452;41.572;23.732;2022-11-15T16:07:49;72.13;;;50.78;;
12776;SDS011;6452;41.572;23.732;2022-11-15T16:10:24;66.93;;;49.28;;
12776;SDS011;6452;41.572;23.732;2022-11-15T16:12:55;69.57;;;48.95;;
12776;SDS011;6452;41.572;23.732;2022-11-15T16:15:23;76.22;;;49.95;;
12776;SDS011;6452;41.572;23.732;2022-11-15T16:17:53;87.10;;;52.25;;
12776;SDS011;6452;41.572;23.732;2022-11-15T16:20:38;101.28;;;58.10;;
12776;SDS011;6452;41.572;23.732;2022-11-15T16:23:08;102.00;;;57.47;;
12776;SDS011;6452;41.572;23.732;2022-11-15T16:25:40;99.90;;;59.55;;
12776;SDS011;6452;41.572;23.732;2022-11-15T16:28:15;102.85;;;58.15;;
12776;SDS011;6452;41.572;23.732;2022-11-15T16:33:30;69.35;;;46.17;;
12776;SDS011;6452;41.572;23.732;2022-11-15T16:35:57;68.30;;;46.42;;
12776;SDS011;6452;41.572;23.732;2022-11-15T16:38:23;65.40;;;43.33;;
12776;SDS011;6452;41.572;23.732;2022-11-15T16:40:50;65.10;;;44.05;;
12776;SDS011;6452;41.572;23.732;2022-11-15T16:43:17;90.47;;;57.67;;